Time;durP1;ratioP1;P1;durP2;ratioP2;P2;SDS_P1;SDS_P2;PMS_P1;PMS_P2;Temp;Humidity;BMP_temperature;BMP_pressure;BME280_temperature;BME280_humidity;BME280_pressure;Samples;Min_cycle;Max_cycle;Signal;HPM_P1;HPM_P2
2022/06/21 00:02:22;;;;;;;1.73;1.63;;;;;;;;;;4942498;28;21310;-55
2022/06/21 00:04:56;;;;;;;1.50;1.30;;;;;;;;;;4945470;28;20496;-53
2022/06/21 00:07:28;;;;;;;2.30;1.90;;;;;;;;;;4931514;28;20555;-54
2022/06/21 00:09:54;;;;;;;2.30;1.60;;;;;;;;;;4952973;28;21018;-54
2022/06/21 00:12:20;;;;;;;3.33;1.43;;;;;;;;;;4924424;28;20438;-55
2022/06/21 00:14:47;;;;;;;2.07;1.37;;;;;;;;;;4945869;28;20484;-53
2022/06/21 00:17:16;;;;;;;1.40;1.30;;;;;;;;;;4943144;28;20443;-53
2022/06/21 00:19:43;;;;;;;1.77;1.43;;;;;;;;;;4936417;28;21165;-54
2022/06/21 00:22:28;;;;;;;2.43;1.93;;;;;;;;;;4938438;28;22883;-54
2022/06/21 00:24:54;;;;;;;1.77;1.33;;;;;;;;;;4938022;28;20442;-54
2022/06/21 00:27:33;;;;;;;2.27;1.80;;;;;;;;;;4940386;28;20534;-54
2022/06/21 00:29:59;;;;;;;1.90;1.57;;;;;;;;;;4921270;28;21012;-54
2022/06/21 00:32:25;;;;;;;1.97;1.70;;;;;;;;;;4918113;28;20454;-54
2022/06/21 00:34:52;;;;;;;2.07;1.73;;;;;;;;;;4941260;28;20230;-53
2022/06/21 00:37:43;;;;;;;1.90;1.63;;;;;;;;;;4945458;28;20446;-57
2022/06/21 00:40:21;;;;;;;3.33;1.93;;;;;;;;;;4941689;28;21114;-53
2022/06/21 00:42:49;;;;;;;1.73;1.63;;;;;;;;;;4939914;28;20459;-54
2022/06/21 00:45:37;;;;;;;1.60;1.30;;;;;;;;;;4927231;28;20487;-53
2022/06/21 00:48:09;;;;;;;1.93;1.37;;;;;;;;;;4938019;28;20491;-53
2022/06/21 00:50:36;;;;;;;2.60;1.83;;;;;;;;;;4940849;28;20648;-53
2022/06/21 00:53:22;;;;;;;1.80;1.40;;;;;;;;;;4932780;28;20459;-54
2022/06/21 00:56:13;;;;;;;2.17;1.67;;;;;;;;;;4909549;28;20811;-54
2022/06/21 00:58:41;;;;;;;1.73;1.63;;;;;;;;;;4938195;28;20470;-55
2022/06/21 01:01:25;;;;;;;2.13;1.50;;;;;;;;;;4941351;28;20535;-54
2022/06/21 01:04:17;;;;;;;1.73;1.30;;;;;;;;;;4932220;28;20964;-55
2022/06/21 01:06:44;;;;;;;2.60;1.67;;;;;;;;;;4932474;28;23199;-53
2022/06/21 01:09:19;;;;;;;1.90;1.70;;;;;;;;;;4953536;28;20498;-54
2022/06/21 01:11:46;;;;;;;3.30;1.57;;;;;;;;;;4921208;28;20443;-53
2022/06/21 01:14:12;;;;;;;5.20;1.87;;;;;;;;;;4949764;28;20493;-54
2022/06/21 01:16:39;;;;;;;1.77;1.47;;;;;;;;;;4955397;28;20427;-55
2022/06/21 01:19:08;;;;;;;3.40;1.87;;;;;;;;;;4939363;28;20180;-54
2022/06/21 01:21:34;;;;;;;1.73;1.60;;;;;;;;;;4928175;28;20495;-54
2022/06/21 01:24:06;;;;;;;2.07;1.60;;;;;;;;;;4930961;28;20456;-54
2022/06/21 01:26:33;;;;;;;1.93;1.43;;;;;;;;;;4920783;28;20442;-54
2022/06/21 01:29:00;;;;;;;2.53;1.37;;;;;;;;;;4944429;28;20454;-55
2022/06/21 01:31:26;;;;;;;2.03;1.70;;;;;;;;;;4937350;28;20438;-57
2022/06/21 01:33:52;;;;;;;5.17;1.77;;;;;;;;;;4942820;28;24112;-53
2022/06/21 01:36:31;;;;;;;1.80;1.57;;;;;;;;;;4895146;28;20991;-55
2022/06/21 01:39:11;;;;;;;2.43;1.70;;;;;;;;;;4945679;28;20588;-53
2022/06/21 01:41:49;;;;;;;2.67;1.77;;;;;;;;;;4930742;28;20467;-53
2022/06/21 01:44:29;;;;;;;3.33;1.90;;;;;;;;;;4943084;28;20474;-54
2022/06/21 01:46:56;;;;;;;2.13;1.63;;;;;;;;;;4923799;28;20439;-55
2022/06/21 01:49:22;;;;;;;1.80;1.43;;;;;;;;;;4943796;28;20435;-55
2022/06/21 01:51:49;;;;;;;3.23;1.70;;;;;;;;;;4937706;28;21181;-54
2022/06/21 01:54:16;;;;;;;2.77;1.63;;;;;;;;;;4943471;28;20577;-55
2022/06/21 01:56:42;;;;;;;1.63;1.37;;;;;;;;;;4914850;28;20475;-55
2022/06/21 01:59:15;;;;;;;2.50;1.57;;;;;;;;;;4944955;28;20434;-55
2022/06/21 02:01:44;;;;;;;3.10;2.00;;;;;;;;;;4937960;28;21621;-52
2022/06/21 02:04:10;;;;;;;1.90;1.50;;;;;;;;;;4943760;28;20927;-54
2022/06/21 02:06:36;;;;;;;1.70;1.57;;;;;;;;;;4936713;28;20442;-55
2022/06/21 02:09:04;;;;;;;2.77;1.50;;;;;;;;;;4946354;28;20449;-54
2022/06/21 02:12:02;;;;;;;2.60;1.57;;;;;;;;;;4909070;28;22038;-56
2022/06/21 02:14:33;;;;;;;4.03;1.77;;;;;;;;;;4930158;28;20591;-55
2022/06/21 02:17:04;;;;;;;2.07;1.80;;;;;;;;;;4921575;28;22946;-55
2022/06/21 02:19:34;;;;;;;2.90;2.00;;;;;;;;;;4944449;28;21052;-55
2022/06/21 02:22:00;;;;;;;2.87;2.00;;;;;;;;;;4918932;28;20514;-54
2022/06/21 02:24:29;;;;;;;3.87;1.97;;;;;;;;;;4939651;28;22169;-53
2022/06/21 02:26:55;;;;;;;1.97;1.77;;;;;;;;;;4937416;28;20323;-54
2022/06/21 02:29:37;;;;;;;2.20;1.87;;;;;;;;;;4944889;28;21006;-54
2022/06/21 02:32:03;;;;;;;2.33;1.60;;;;;;;;;;4925673;28;21242;-54
2022/06/21 02:34:32;;;;;;;2.10;1.60;;;;;;;;;;4938445;28;20493;-52
2022/06/21 02:37:01;;;;;;;1.83;1.63;;;;;;;;;;4932658;28;20446;-54
2022/06/21 02:39:28;;;;;;;2.40;2.20;;;;;;;;;;4928398;28;21991;-54
2022/06/21 02:42:05;;;;;;;2.00;1.80;;;;;;;;;;4951581;28;20459;-54
2022/06/21 02:45:07;;;;;;;2.00;1.80;;;;;;;;;;4931042;28;20443;-56
2022/06/21 02:47:37;;;;;;;2.67;1.60;;;;;;;;;;4941971;28;20980;-54
2022/06/21 02:50:05;;;;;;;4.00;1.80;;;;;;;;;;4922602;28;20481;-53
2022/06/21 02:52:33;;;;;;;2.47;1.57;;;;;;;;;;4938644;28;20427;-53
2022/06/21 02:55:20;;;;;;;;;;;;;;;;;;;;;
2022/06/21 02:57:55;;;;;;;3.30;1.90;;;;;;;;;;4939613;28;20435;-54
2022/06/21 03:00:24;;;;;;;2.10;1.90;;;;;;;;;;4939758;28;20497;-55
2022/06/21 03:02:52;;;;;;;3.40;1.80;;;;;;;;;;4944094;28;20986;-54
2022/06/21 03:05:20;;;;;;;5.80;1.83;;;;;;;;;;4920582;28;20470;-53
2022/06/21 03:07:53;;;;;;;1.50;1.37;;;;;;;;;;4942642;28;20832;-53
2022/06/21 03:10:42;;;;;;;2.47;2.20;;;;;;;;;;4942846;28;20434;-52
2022/06/21 03:13:11;;;;;;;7.30;1.70;;;;;;;;;;4941584;28;20481;-55
2022/06/21 03:15:37;;;;;;;2.40;1.90;;;;;;;;;;4910068;28;20606;-54
2022/06/21 03:18:08;;;;;;;3.80;1.80;;;;;;;;;;4942158;28;20534;-53
2022/06/21 03:20:36;;;;;;;2.17;1.90;;;;;;;;;;4941794;28;20560;-57
2022/06/21 03:23:04;;;;;;;2.30;2.10;;;;;;;;;;4940022;28;20988;-55
2022/06/21 03:25:40;;;;;;;2.93;2.70;;;;;;;;;;4933233;28;21829;-55
2022/06/21 03:28:39;;;;;;;2.17;1.97;;;;;;;;;;4938807;28;20489;-53
2022/06/21 03:31:14;;;;;;;2.93;1.67;;;;;;;;;;4882176;28;20458;-54
2022/06/21 03:33:42;;;;;;;1.90;1.50;;;;;;;;;;4920195;28;20467;-55
2022/06/21 03:36:12;;;;;;;2.00;1.70;;;;;;;;;;4940060;28;20485;-53
2022/06/21 03:38:40;;;;;;;4.67;2.30;;;;;;;;;;4936712;28;20546;-54
2022/06/21 03:43:57;;;;;;;3.00;1.83;;;;;;;;;;4938789;28;20433;-53
2022/06/21 03:46:25;;;;;;;4.30;1.57;;;;;;;;;;4945142;28;20549;-53
2022/06/21 03:48:56;;;;;;;2.13;1.87;;;;;;;;;;4922163;28;20442;-54
2022/06/21 03:51:24;;;;;;;2.50;1.80;;;;;;;;;;4939436;28;20431;-54
2022/06/21 03:53:54;;;;;;;2.90;1.97;;;;;;;;;;4935107;28;20458;-53
2022/06/21 03:56:32;;;;;;;4.70;1.93;;;;;;;;;;4940235;28;20523;-54
2022/06/21 03:59:10;;;;;;;2.37;1.53;;;;;;;;;;4915811;28;20489;-54
2022/06/21 04:01:42;;;;;;;4.83;1.80;;;;;;;;;;4941968;28;20477;-54
2022/06/21 04:04:29;;;;;;;2.00;1.80;;;;;;;;;;4917678;28;20451;-54
2022/06/21 04:07:07;;;;;;;4.07;1.80;;;;;;;;;;4954040;28;20443;-54
2022/06/21 04:09:46;;;;;;;2.77;1.80;;;;;;;;;;4940243;28;21006;-54
2022/06/21 04:12:26;;;;;;;2.73;2.00;;;;;;;;;;4944717;28;20431;-54
2022/06/21 04:15:21;;;;;;;2.00;1.80;;;;;;;;;;4939681;28;20885;-54
2022/06/21 04:18:20;;;;;;;2.57;2.00;;;;;;;;;;4939527;28;20462;-55
2022/06/21 04:20:50;;;;;;;1.70;1.60;;;;;;;;;;4929681;28;20470;-54
2022/06/21 04:23:16;;;;;;;2.67;1.80;;;;;;;;;;4925422;28;21023;-55
2022/06/21 04:25:46;;;;;;;2.53;1.87;;;;;;;;;;4938367;28;20945;-55
2022/06/21 04:28:12;;;;;;;1.70;1.43;;;;;;;;;;4942053;28;20446;-55
2022/06/21 04:30:42;;;;;;;2.00;1.80;;;;;;;;;;4943044;28;20462;-53
2022/06/21 04:33:26;;;;;;;1.67;1.33;;;;;;;;;;4937163;28;21864;-55
2022/06/21 04:36:06;;;;;;;2.10;1.80;;;;;;;;;;4937740;28;20457;-53
2022/06/21 04:38:35;;;;;;;2.40;2.20;;;;;;;;;;4938308;28;21007;-55
2022/06/21 04:41:21;;;;;;;1.83;1.73;;;;;;;;;;4934581;28;20449;-55
2022/06/21 04:44:08;;;;;;;4.23;1.67;;;;;;;;;;4909690;28;20443;-56
2022/06/21 04:46:51;;;;;;;1.73;1.63;;;;;;;;;;4935620;28;20981;-55
2022/06/21 04:49:45;;;;;;;2.53;1.80;;;;;;;;;;4923133;28;20455;-58
2022/06/21 04:52:12;;;;;;;2.60;1.60;;;;;;;;;;4933254;28;20499;-55
2022/06/21 04:54:38;;;;;;;4.00;2.20;;;;;;;;;;4905894;28;20485;-55
2022/06/21 04:57:14;;;;;;;2.00;1.77;;;;;;;;;;4941217;28;20431;-55
2022/06/21 04:59:43;;;;;;;3.47;2.27;;;;;;;;;;4938661;28;20448;-56
2022/06/21 05:02:13;;;;;;;8.20;2.40;;;;;;;;;;4935288;28;20541;-56
2022/06/21 05:04:39;;;;;;;2.27;1.87;;;;;;;;;;4904560;28;20438;-56
2022/06/21 05:07:12;;;;;;;5.70;2.83;;;;;;;;;;4954743;28;20929;-55
2022/06/21 05:09:38;;;;;;;9.70;2.63;;;;;;;;;;4911614;28;21324;-55
2022/06/21 05:12:11;;;;;;;3.57;1.70;;;;;;;;;;4931505;28;20798;-55
2022/06/21 05:14:39;;;;;;;2.60;1.97;;;;;;;;;;4916209;28;20482;-54
2022/06/21 05:17:06;;;;;;;2.53;2.20;;;;;;;;;;4932045;28;21824;-56
2022/06/21 05:19:32;;;;;;;3.43;2.20;;;;;;;;;;4931199;28;20677;-56
2022/06/21 05:22:05;;;;;;;3.40;2.10;;;;;;;;;;4933473;28;20451;-53
2022/06/21 05:24:31;;;;;;;5.70;2.17;;;;;;;;;;4887749;28;20474;-56
2022/06/21 05:27:16;;;;;;;5.03;2.10;;;;;;;;;;4940129;28;20458;-55
2022/06/21 05:29:44;;;;;;;2.00;1.80;;;;;;;;;;4929743;28;20529;-55
2022/06/21 05:32:21;;;;;;;2.60;1.70;;;;;;;;;;4942709;28;20503;-53
2022/06/21 05:34:54;;;;;;;5.70;2.00;;;;;;;;;;4937438;28;20490;-54
2022/06/21 05:37:24;;;;;;;2.60;1.87;;;;;;;;;;4937366;28;20902;-54
2022/06/21 05:39:52;;;;;;;3.03;1.80;;;;;;;;;;4911369;28;20454;-55
2022/06/21 05:42:19;;;;;;;3.23;1.97;;;;;;;;;;4930515;28;20865;-55
2022/06/21 05:44:53;;;;;;;2.50;1.80;;;;;;;;;;4947273;28;20450;-55
2022/06/21 05:47:42;;;;;;;2.73;1.90;;;;;;;;;;4903745;28;20467;-54
2022/06/21 05:50:09;;;;;;;2.70;2.23;;;;;;;;;;4931282;28;20442;-54
2022/06/21 05:52:37;;;;;;;4.27;2.30;;;;;;;;;;4911151;28;20530;-55
2022/06/21 05:55:08;;;;;;;5.67;2.00;;;;;;;;;;4941999;28;21014;-55
2022/06/21 05:57:39;;;;;;;6.53;2.37;;;;;;;;;;4904163;28;20427;-56
2022/06/21 06:00:06;;;;;;;2.33;2.13;;;;;;;;;;4933777;28;20462;-56
2022/06/21 06:02:37;;;;;;;4.53;2.37;;;;;;;;;;4937427;28;20475;-55
2022/06/21 06:05:14;;;;;;;2.80;1.90;;;;;;;;;;4941070;28;20430;-55
2022/06/21 06:07:41;;;;;;;2.40;1.80;;;;;;;;;;4922976;28;20458;-54
2022/06/21 06:10:07;;;;;;;6.20;2.10;;;;;;;;;;4940340;28;20462;-55
2022/06/21 06:12:41;;;;;;;2.97;1.67;;;;;;;;;;4944979;28;20435;-54
2022/06/21 06:15:14;;;;;;;2.67;1.80;;;;;;;;;;4930211;28;20471;-60
2022/06/21 06:17:46;;;;;;;2.37;2.10;;;;;;;;;;4945924;28;20494;-54
2022/06/21 06:20:14;;;;;;;2.30;1.73;;;;;;;;;;4944548;28;20442;-55
2022/06/21 06:22:50;;;;;;;1.93;1.73;;;;;;;;;;4944140;28;20430;-55
2022/06/21 06:25:20;;;;;;;2.73;2.10;;;;;;;;;;4937422;28;20450;-55
2022/06/21 06:27:57;;;;;;;2.73;2.00;;;;;;;;;;4948271;28;21028;-54
2022/06/21 06:30:36;;;;;;;5.00;1.90;;;;;;;;;;4918398;28;20466;-56
2022/06/21 06:33:22;;;;;;;6.97;2.20;;;;;;;;;;4947239;28;20457;-56
2022/06/21 06:35:48;;;;;;;2.00;1.60;;;;;;;;;;4943323;28;20476;-55
2022/06/21 06:38:14;;;;;;;4.40;1.73;;;;;;;;;;4916421;28;20443;-54
2022/06/21 06:40:47;;;;;;;3.40;2.17;;;;;;;;;;4929625;28;20446;-54
2022/06/21 06:43:14;;;;;;;3.57;1.87;;;;;;;;;;4928511;28;20438;-56
2022/06/21 06:45:40;;;;;;;3.43;1.90;;;;;;;;;;4930642;28;20455;-56
2022/06/21 06:48:26;;;;;;;2.00;1.77;;;;;;;;;;4909153;28;20878;-55
2022/06/21 06:50:54;;;;;;;2.83;2.23;;;;;;;;;;4930418;28;20823;-55
2022/06/21 06:53:23;;;;;;;3.33;2.00;;;;;;;;;;4929411;28;20454;-56
2022/06/21 06:55:51;;;;;;;3.23;2.03;;;;;;;;;;4946817;28;20475;-55
2022/06/21 06:58:17;;;;;;;2.17;1.97;;;;;;;;;;4915564;28;20435;-54
2022/06/21 07:00:45;;;;;;;3.30;1.77;;;;;;;;;;4930942;28;20443;-55
2022/06/21 07:03:15;;;;;;;4.50;2.27;;;;;;;;;;4912655;28;20474;-56
2022/06/21 07:06:08;;;;;;;2.70;2.23;;;;;;;;;;4930611;28;20509;-58
2022/06/21 07:08:36;;;;;;;5.97;2.20;;;;;;;;;;4929854;28;20446;-58
2022/06/21 07:11:05;;;;;;;3.57;2.17;;;;;;;;;;4933442;28;20441;-56
2022/06/21 07:13:32;;;;;;;1.87;1.67;;;;;;;;;;4911437;28;20439;-55
2022/06/21 07:16:02;;;;;;;3.63;2.50;;;;;;;;;;4931706;28;20511;-55
2022/06/21 07:18:30;;;;;;;2.40;2.00;;;;;;;;;;4911504;28;20478;-55
2022/06/21 07:21:03;;;;;;;4.90;2.40;;;;;;;;;;4932266;28;20792;-58
2022/06/21 07:23:30;;;;;;;3.43;2.30;;;;;;;;;;4926128;28;20446;-54
2022/06/21 07:26:05;;;;;;;3.80;2.67;;;;;;;;;;4932586;28;20536;-55
2022/06/21 07:29:02;;;;;;;3.53;2.10;;;;;;;;;;4926613;28;21216;-55
2022/06/21 07:31:33;;;;;;;3.30;2.30;;;;;;;;;;4918187;28;20447;-55
2022/06/21 07:34:03;;;;;;;2.50;2.30;;;;;;;;;;4871755;28;20621;-56
2022/06/21 07:36:33;;;;;;;2.50;2.07;;;;;;;;;;4929237;28;20455;-55
2022/06/21 07:39:06;;;;;;;4.73;3.20;;;;;;;;;;4927392;28;20443;-55
2022/06/21 07:41:34;;;;;;;4.00;2.90;;;;;;;;;;4934302;28;20549;-55
2022/06/21 07:44:07;;;;;;;2.93;2.63;;;;;;;;;;4911407;28;20506;-56
2022/06/21 07:46:35;;;;;;;3.97;2.83;;;;;;;;;;4936358;28;20538;-55
2022/06/21 07:49:17;;;;;;;3.90;2.87;;;;;;;;;;4915134;28;20455;-57
2022/06/21 07:51:50;;;;;;;3.10;2.20;;;;;;;;;;4934736;28;21010;-55
2022/06/21 07:54:16;;;;;;;5.07;2.10;;;;;;;;;;4935008;28;20486;-56
2022/06/21 07:56:43;;;;;;;4.60;2.50;;;;;;;;;;4950008;28;20530;-55
2022/06/21 07:59:16;;;;;;;3.47;2.20;;;;;;;;;;4935223;28;20444;-55
2022/06/21 08:07:35;;;;;;;3.63;2.53;;;;;;;;;;4936462;28;20551;-55
2022/06/21 08:10:00;;;;;;;10.63;2.40;;;;;;;;;;4910615;28;21082;-56
2022/06/21 08:12:33;;;;;;;3.20;1.90;;;;;;;;;;4939992;28;20881;-55
2022/06/21 08:15:00;;;;;;;4.43;2.40;;;;;;;;;;4912221;28;20562;-55
2022/06/21 08:17:45;;;;;;;2.53;2.20;;;;;;;;;;4935174;28;20444;-55
2022/06/21 08:20:16;;;;;;;4.40;2.77;;;;;;;;;;4914081;28;20494;-55
2022/06/21 08:22:44;;;;;;;6.60;3.03;;;;;;;;;;4933786;28;20447;-55
2022/06/21 08:25:19;;;;;;;3.50;2.43;;;;;;;;;;4918831;28;21263;-55
2022/06/21 08:27:54;;;;;;;3.37;2.67;;;;;;;;;;4932123;28;20513;-54
2022/06/21 08:30:22;;;;;;;4.40;2.83;;;;;;;;;;4929861;28;21282;-55
2022/06/21 08:32:53;;;;;;;4.03;2.70;;;;;;;;;;4933962;28;20459;-55
2022/06/21 08:35:29;;;;;;;3.60;2.50;;;;;;;;;;4905998;28;20493;-55
2022/06/21 08:38:04;;;;;;;4.40;2.87;;;;;;;;;;4931462;28;20964;-56
2022/06/21 08:40:40;;;;;;;6.23;2.60;;;;;;;;;;4911778;28;20446;-55
2022/06/21 08:43:16;;;;;;;5.27;4.43;;;;;;;;;;4932533;28;20451;-56
2022/06/21 08:46:04;;;;;;;3.77;3.10;;;;;;;;;;4909603;28;20446;-56
2022/06/21 08:48:37;;;;;;;2.80;2.50;;;;;;;;;;4933615;28;20439;-57
2022/06/21 08:51:15;;;;;;;2.93;2.37;;;;;;;;;;4913200;28;20467;-58
2022/06/21 08:53:57;;;;;;;2.50;2.30;;;;;;;;;;4932735;28;20439;-54
2022/06/21 08:56:40;;;;;;;5.03;2.90;;;;;;;;;;4926947;28;20451;-56
2022/06/21 08:59:12;;;;;;;4.10;2.93;;;;;;;;;;4933065;28;21157;-55
2022/06/21 09:01:52;;;;;;;8.87;3.00;;;;;;;;;;4929958;28;20439;-56
2022/06/21 09:04:21;;;;;;;4.27;2.53;;;;;;;;;;4932097;28;20451;-55
2022/06/21 09:06:47;;;;;;;3.00;2.70;;;;;;;;;;4915350;28;20481;-56
2022/06/21 09:09:20;;;;;;;3.90;2.67;;;;;;;;;;4932656;28;20526;-55
2022/06/21 09:11:50;;;;;;;5.30;2.90;;;;;;;;;;4890374;28;20538;-54
2022/06/21 09:14:29;;;;;;;3.50;2.97;;;;;;;;;;4932921;28;20514;-56
2022/06/21 09:17:15;;;;;;;3.70;3.00;;;;;;;;;;4908008;28;20450;-56
2022/06/21 09:19:48;;;;;;;2.83;2.63;;;;;;;;;;4931745;28;20447;-56
2022/06/21 09:22:25;;;;;;;6.43;2.80;;;;;;;;;;4905820;28;20605;-55
2022/06/21 09:24:57;;;;;;;3.50;2.80;;;;;;;;;;4932853;28;20445;-56
2022/06/21 09:27:24;;;;;;;5.20;2.50;;;;;;;;;;4916400;28;20470;-56
2022/06/21 09:30:10;;;;;;;2.90;2.30;;;;;;;;;;4934074;28;20819;-55
2022/06/21 09:32:40;;;;;;;3.50;2.77;;;;;;;;;;4929407;28;20454;-56
2022/06/21 09:35:21;;;;;;;3.03;2.60;;;;;;;;;;4932548;28;20521;-54
2022/06/21 09:37:56;;;;;;;3.73;2.80;;;;;;;;;;4915948;28;21006;-56
2022/06/21 09:43:40;;;;;;;4.10;2.97;;;;;;;;;;4907483;28;20512;-55
2022/06/21 09:46:09;;;;;;;8.63;3.10;;;;;;;;;;4930932;28;20899;-56
2022/06/21 09:49:00;;;;;;;5.00;2.83;;;;;;;;;;4908879;28;20531;-57
2022/06/21 09:51:45;;;;;;;7.13;3.60;;;;;;;;;;4929857;28;20435;-56
2022/06/21 09:54:46;;;;;;;5.33;2.90;;;;;;;;;;4920162;28;20987;-55
2022/06/21 09:57:16;;;;;;;4.80;3.27;;;;;;;;;;4886263;29;20443;-55
2022/06/21 09:59:44;;;;;;;4.83;3.00;;;;;;;;;;4929026;28;20428;-55
2022/06/21 10:02:10;;;;;;;4.27;2.67;;;;;;;;;;4928503;28;20457;-55
2022/06/21 10:04:42;;;;;;;4.10;3.33;;;;;;;;;;4904883;28;21103;-54
2022/06/21 10:07:09;;;;;;;4.60;2.70;;;;;;;;;;4931579;28;20443;-55
2022/06/21 10:09:35;;;;;;;6.87;2.90;;;;;;;;;;4925979;28;20486;-55
2022/06/21 10:12:07;;;;;;;5.70;2.97;;;;;;;;;;4931603;28;20469;-56
2022/06/21 10:14:39;;;;;;;8.30;2.83;;;;;;;;;;4910234;28;20223;-56
2022/06/21 10:17:13;;;;;;;3.10;2.60;;;;;;;;;;4932492;28;20462;-57
2022/06/21 10:19:51;;;;;;;4.23;3.00;;;;;;;;;;4906608;28;21489;-57
2022/06/21 10:22:25;;;;;;;5.60;3.07;;;;;;;;;;4932419;28;20481;-56
2022/06/21 10:24:54;;;;;;;4.63;3.07;;;;;;;;;;4912215;28;20476;-54
2022/06/21 10:27:23;;;;;;;3.70;3.13;;;;;;;;;;4930982;28;20435;-55
2022/06/21 10:29:52;;;;;;;5.33;2.70;;;;;;;;;;4929414;28;20517;-55
2022/06/21 10:32:26;;;;;;;3.60;2.80;;;;;;;;;;4906272;28;20446;-56
2022/06/21 10:35:11;;;;;;;3.13;2.73;;;;;;;;;;4933851;28;21484;-54
2022/06/21 10:37:56;;;;;;;4.20;3.13;;;;;;;;;;4908884;28;20455;-56
2022/06/21 10:40:41;;;;;;;4.13;2.77;;;;;;;;;;4931094;28;20434;-53
2022/06/21 10:43:24;;;;;;;4.73;3.40;;;;;;;;;;4912946;28;20475;-57
2022/06/21 10:46:14;;;;;;;4.00;3.23;;;;;;;;;;4923404;28;20454;-58
2022/06/21 10:48:46;;;;;;;4.00;3.33;;;;;;;;;;4916950;28;20979;-56
2022/06/21 10:51:18;;;;;;;6.40;3.03;;;;;;;;;;4912618;28;21057;-58
2022/06/21 10:53:48;;;;;;;4.30;3.73;;;;;;;;;;4933423;28;20546;-55
2022/06/21 10:59:02;;;;;;;4.40;3.63;;;;;;;;;;4936056;28;20473;-56
2022/06/21 11:01:46;;;;;;;6.23;3.60;;;;;;;;;;4931161;28;20552;-57
2022/06/21 11:04:12;;;;;;;5.07;3.53;;;;;;;;;;4939639;28;20543;-55
2022/06/21 11:07:03;;;;;;;5.00;3.37;;;;;;;;;;4931770;28;20466;-55
2022/06/21 11:09:37;;;;;;;5.53;3.70;;;;;;;;;;4936329;28;20441;-56
2022/06/21 11:15:35;;;;;;;3.73;3.10;;;;;;;;;;4936696;28;20554;-56
2022/06/21 11:18:08;;;;;;;4.30;3.33;;;;;;;;;;4863521;29;20650;-55
2022/06/21 11:20:56;;;;;;;5.90;3.30;;;;;;;;;;4899126;29;21021;-59
2022/06/21 11:23:31;;;;;;;3.37;3.07;;;;;;;;;;4918765;28;20438;-57
2022/06/21 11:26:05;;;;;;;3.63;3.07;;;;;;;;;;4925180;28;21255;-55
2022/06/21 11:28:43;;;;;;;4.00;3.37;;;;;;;;;;4934276;28;20464;-58
2022/06/21 11:31:15;;;;;;;7.50;3.50;;;;;;;;;;4924578;28;20591;-56
2022/06/21 11:34:00;;;;;;;4.10;3.13;;;;;;;;;;4938804;28;20562;-56
2022/06/21 11:36:30;;;;;;;6.83;3.50;;;;;;;;;;4918770;28;20488;-56
2022/06/21 11:39:00;;;;;;;6.63;4.00;;;;;;;;;;4936499;28;20443;-56
2022/06/21 11:44:24;;;;;;;7.23;3.50;;;;;;;;;;4939670;28;21482;-57
2022/06/21 11:46:52;;;;;;;3.70;3.40;;;;;;;;;;4888768;28;20462;-57
2022/06/21 11:49:40;;;;;;;3.70;3.40;;;;;;;;;;4925995;28;20577;-55
2022/06/21 11:52:21;;;;;;;6.17;3.87;;;;;;;;;;4925657;28;20625;-56
2022/06/21 11:54:58;;;;;;;3.47;3.17;;;;;;;;;;4934219;28;20480;-56
2022/06/21 11:57:28;;;;;;;3.93;2.90;;;;;;;;;;4907780;28;20562;-57
2022/06/21 12:00:15;;;;;;;4.87;3.80;;;;;;;;;;4920196;28;20439;-56
2022/06/21 12:02:44;;;;;;;3.63;3.30;;;;;;;;;;4934488;28;20488;-58
2022/06/21 12:05:23;;;;;;;4.40;3.33;;;;;;;;;;4910649;28;20477;-54
2022/06/21 12:08:19;;;;;;;5.17;4.40;;;;;;;;;;4932141;28;20435;-55
2022/06/21 12:10:58;;;;;;;7.00;3.43;;;;;;;;;;4913372;28;20443;-56
2022/06/21 12:13:44;;;;;;;9.30;3.93;;;;;;;;;;4926456;28;20772;-56
2022/06/21 12:16:22;;;;;;;4.47;3.80;;;;;;;;;;4934215;28;20482;-56
2022/06/21 12:18:50;;;;;;;4.77;4.27;;;;;;;;;;4903748;28;20601;-56
2022/06/21 12:21:26;;;;;;;6.20;3.90;;;;;;;;;;4930674;28;20446;-56
2022/06/21 12:23:56;;;;;;;4.70;3.70;;;;;;;;;;4908727;28;20529;-54
2022/06/21 12:26:27;;;;;;;3.80;3.13;;;;;;;;;;4932991;28;21120;-54
2022/06/21 12:28:54;;;;;;;6.60;4.33;;;;;;;;;;4925833;28;20451;-55
2022/06/21 12:31:26;;;;;;;7.00;3.87;;;;;;;;;;4930577;28;20443;-55
2022/06/21 12:34:01;;;;;;;7.70;4.17;;;;;;;;;;4933899;28;20455;-55
2022/06/21 12:36:28;;;;;;;5.70;3.70;;;;;;;;;;4932683;28;20454;-58
2022/06/21 12:39:01;;;;;;;5.20;4.60;;;;;;;;;;4906324;28;20986;-55
2022/06/21 12:41:36;;;;;;;4.50;4.00;;;;;;;;;;4931776;28;21665;-55
2022/06/21 12:44:15;;;;;;;4.73;4.30;;;;;;;;;;4937953;28;20434;-55
2022/06/21 12:47:04;;;;;;;6.63;5.00;;;;;;;;;;4902662;28;20456;-57
2022/06/21 12:49:51;;;;;;;4.80;4.40;;;;;;;;;;4919894;28;21890;-56
2022/06/21 12:52:22;;;;;;;5.90;4.27;;;;;;;;;;4926566;28;20438;-55
2022/06/21 12:55:08;;;;;;;5.03;4.27;;;;;;;;;;4917677;28;20482;-54
2022/06/21 12:57:48;;;;;;;6.93;4.13;;;;;;;;;;4917098;28;20451;-55
2022/06/21 13:00:37;;;;;;;4.53;3.97;;;;;;;;;;4929170;28;20474;-55
2022/06/21 13:03:03;;;;;;;8.43;4.57;;;;;;;;;;4933161;28;20450;-57
2022/06/21 13:05:49;;;;;;;4.80;4.07;;;;;;;;;;4926375;28;20444;-56
2022/06/21 13:08:34;;;;;;;6.70;4.20;;;;;;;;;;4932498;28;20438;-54
2022/06/21 13:11:05;;;;;;;5.53;4.97;;;;;;;;;;4902906;28;20451;-56
2022/06/21 13:13:31;;;;;;;4.10;3.70;;;;;;;;;;4932463;28;20450;-56
2022/06/21 13:16:16;;;;;;;7.60;5.90;;;;;;;;;;4920001;28;20467;-55
2022/06/21 13:18:47;;;;;;;6.00;4.70;;;;;;;;;;4931594;28;20523;-57
2022/06/21 13:21:49;;;;;;;5.10;3.90;;;;;;;;;;4911128;28;20506;-55
2022/06/21 13:24:17;;;;;;;5.47;4.50;;;;;;;;;;4931825;28;20446;-56
2022/06/21 13:27:12;;;;;;;4.60;4.10;;;;;;;;;;4906853;28;20450;-56
2022/06/21 13:29:39;;;;;;;6.27;5.03;;;;;;;;;;4926956;28;20458;-57
2022/06/21 13:32:11;;;;;;;5.27;3.90;;;;;;;;;;4929462;28;20466;-56
2022/06/21 13:34:43;;;;;;;6.20;4.73;;;;;;;;;;4931986;28;20483;-56
2022/06/21 13:37:23;;;;;;;8.03;4.57;;;;;;;;;;4918681;28;20446;-56
2022/06/21 13:40:04;;;;;;;5.20;4.70;;;;;;;;;;4930002;28;20438;-55
2022/06/21 13:42:40;;;;;;;4.80;4.27;;;;;;;;;;4907886;28;20462;-55
2022/06/21 13:45:29;;;;;;;7.27;4.77;;;;;;;;;;4910904;28;20478;-56
2022/06/21 13:48:12;;;;;;;8.33;4.37;;;;;;;;;;4920816;28;20461;-55
2022/06/21 13:50:52;;;;;;;4.83;4.33;;;;;;;;;;4921274;28;20564;-55
2022/06/21 13:53:21;;;;;;;4.60;4.20;;;;;;;;;;4923711;28;21254;-55
2022/06/21 13:56:01;;;;;;;5.50;5.00;;;;;;;;;;4921351;28;21017;-55
2022/06/21 13:58:40;;;;;;;6.63;5.50;;;;;;;;;;4913218;28;22371;-56
2022/06/21 14:01:09;;;;;;;5.47;4.50;;;;;;;;;;4933046;28;21301;-55
2022/06/21 14:03:56;;;;;;;6.13;4.40;;;;;;;;;;4931494;28;20459;-55
2022/06/21 14:06:50;;;;;;;5.67;5.00;;;;;;;;;;4929742;28;20446;-55
2022/06/21 14:09:37;;;;;;;5.57;4.60;;;;;;;;;;4903310;28;20498;-56
2022/06/21 14:12:07;;;;;;;5.47;4.93;;;;;;;;;;4928770;28;20446;-52
2022/06/21 14:14:51;;;;;;;5.40;4.90;;;;;;;;;;4923800;28;20486;-54
2022/06/21 14:20:48;;;;;;;6.57;5.20;;;;;;;;;;4926794;28;20501;-55
2022/06/21 14:23:53;;;;;;;6.30;4.70;;;;;;;;;;4916112;28;20704;-57
2022/06/21 14:26:30;;;;;;;8.80;4.60;;;;;;;;;;4934495;28;20470;-55
2022/06/21 14:29:01;;;;;;;6.23;5.07;;;;;;;;;;4910959;28;20474;-53
2022/06/21 14:31:28;;;;;;;5.87;5.27;;;;;;;;;;4926486;28;20580;-56
2022/06/21 14:33:57;;;;;;;5.53;5.03;;;;;;;;;;4915928;28;20439;-52
2022/06/21 14:36:26;;;;;;;5.27;4.77;;;;;;;;;;4929194;28;20533;-54
2022/06/21 14:39:05;;;;;;;7.93;4.70;;;;;;;;;;4931323;28;20438;-54
2022/06/21 14:41:38;;;;;;;5.30;4.80;;;;;;;;;;4927522;28;20987;-55
2022/06/21 14:44:15;;;;;;;6.73;6.03;;;;;;;;;;4920085;28;20867;-55
2022/06/21 14:47:16;;;;;;;8.60;5.20;;;;;;;;;;4942372;28;20447;-56
2022/06/21 14:50:20;;;;;;;5.80;5.20;;;;;;;;;;4934518;28;20534;-53
2022/06/21 14:53:04;;;;;;;6.23;5.20;;;;;;;;;;4922179;28;20536;-56
2022/06/21 14:56:00;;;;;;;6.67;5.10;;;;;;;;;;4914801;28;20569;-55
2022/06/21 14:58:29;;;;;;;6.47;5.73;;;;;;;;;;4935617;28;20448;-54
2022/06/21 15:01:09;;;;;;;8.80;5.77;;;;;;;;;;4913093;28;20501;-54
2022/06/21 15:03:58;;;;;;;6.40;4.90;;;;;;;;;;4935918;28;20514;-55
2022/06/21 15:06:34;;;;;;;6.07;5.47;;;;;;;;;;4919673;28;20442;-55
2022/06/21 15:09:10;;;;;;;5.87;5.27;;;;;;;;;;4934357;28;20481;-56
2022/06/21 15:11:53;;;;;;;6.40;5.13;;;;;;;;;;4930326;28;20449;-55
2022/06/21 15:14:25;;;;;;;6.90;5.20;;;;;;;;;;4935305;28;20431;-56
2022/06/21 15:17:03;;;;;;;6.87;6.27;;;;;;;;;;4906159;28;20443;-55
2022/06/21 15:19:55;;;;;;;6.17;5.47;;;;;;;;;;4934543;28;20543;-55
2022/06/21 15:22:40;;;;;;;6.83;5.20;;;;;;;;;;4897153;28;20582;-55
2022/06/21 15:25:25;;;;;;;9.67;6.33;;;;;;;;;;4927234;28;20546;-55
2022/06/21 15:28:09;;;;;;;5.60;5.10;;;;;;;;;;4945744;28;20480;-54
2022/06/21 15:30:59;;;;;;;6.07;5.43;;;;;;;;;;4910815;28;20474;-56
2022/06/21 15:33:27;;;;;;;7.50;5.30;;;;;;;;;;4916638;28;20446;-56
2022/06/21 15:36:03;;;;;;;7.20;6.57;;;;;;;;;;4931779;28;20518;-55
2022/06/21 15:38:31;;;;;;;6.53;5.37;;;;;;;;;;4915371;28;20470;-57
2022/06/21 15:40:58;;;;;;;6.80;6.13;;;;;;;;;;4929134;28;20445;-54
2022/06/21 15:43:28;;;;;;;6.30;5.73;;;;;;;;;;4913109;28;20450;-57
2022/06/21 15:46:07;;;;;;;7.60;5.67;;;;;;;;;;4931360;28;20553;-54
2022/06/21 15:51:30;;;;;;;5.90;5.40;;;;;;;;;;4923706;28;20466;-56
2022/06/21 15:54:00;;;;;;;8.93;5.70;;;;;;;;;;4910294;28;20443;-54
2022/06/21 15:56:46;;;;;;;6.03;5.43;;;;;;;;;;4929673;28;20624;-53